Time;durP1;ratioP1;P1;durP2;ratioP2;P2;SDS_P1;SDS_P2;PMS_P1;PMS_P2;Temp;Humidity;BMP_temperature;BMP_pressure;BME280_temperature;BME280_humidity;BME280_pressure;Samples;Min_cycle;Max_cycle;Signal;HPM_P1;HPM_P2
2023/04/19 00:00:18;;;;;;;29.98;18.17;;;;;;;8.10;100.00;100775.50;4849816;29;20049;-77
2023/04/19 00:02:44;;;;;;;27.52;17.27;;;;;;;8.03;100.00;100778.53;4850545;29;20046;-77
2023/04/19 00:05:12;;;;;;;29.13;18.27;;;;;;;7.95;100.00;100767.97;4834579;29;20067;-77
2023/04/19 00:07:37;;;;;;;26.33;17.05;;;;;;;7.94;100.00;100766.28;4850748;29;20384;-77
2023/04/19 00:10:03;;;;;;;31.75;18.25;;;;;;;7.94;100.00;100769.06;4847041;29;20086;-77
2023/04/19 00:12:29;;;;;;;30.45;17.35;;;;;;;7.87;100.00;100763.78;4831711;29;20128;-77
2023/04/19 00:14:54;;;;;;;31.23;18.08;;;;;;;7.86;100.00;100766.84;4862401;29;20674;-78
2023/04/19 00:17:20;;;;;;;28.17;18.38;;;;;;;7.78;100.00;100763.47;4857879;29;20487;-77
2023/04/19 00:19:45;;;;;;;27.02;18.95;;;;;;;7.79;100.00;100762.34;4846514;29;20575;-77
2023/04/19 00:22:11;;;;;;;26.08;17.63;;;;;;;7.76;100.00;100759.31;4847082;29;20054;-77
2023/04/19 00:24:36;;;;;;;27.50;17.35;;;;;;;7.73;100.00;100763.44;4831835;29;20050;-77
2023/04/19 00:27:02;;;;;;;25.38;17.27;;;;;;;7.75;100.00;100763.19;4851873;29;20065;-77
2023/04/19 00:29:28;;;;;;;25.48;17.63;;;;;;;7.76;100.00;100756.53;4831489;29;20117;-77
2023/04/19 00:31:53;;;;;;;26.75;17.52;;;;;;;7.71;100.00;100759.28;4846727;29;20046;-77
2023/04/19 00:34:19;;;;;;;27.95;17.15;;;;;;;7.65;100.00;100755.66;4849800;29;20495;-78
2023/04/19 00:36:44;;;;;;;26.10;17.33;;;;;;;7.63;100.00;100759.78;4849347;29;20046;-77
2023/04/19 00:39:10;;;;;;;23.65;16.60;;;;;;;7.58;100.00;100760.63;4865061;29;20038;-77
2023/04/19 00:41:35;;;;;;;23.52;16.73;;;;;;;7.57;100.00;100747.88;4864518;29;20033;-77
2023/04/19 00:44:01;;;;;;;23.30;16.33;;;;;;;7.55;100.00;100750.06;4865396;29;20067;-76
2023/04/19 00:46:26;;;;;;;27.15;17.58;;;;;;;7.54;100.00;100749.25;4849763;29;20457;-77
2023/04/19 00:48:52;;;;;;;25.50;17.27;;;;;;;7.54;100.00;100740.13;4859770;29;20040;-77
2023/04/19 00:51:17;;;;;;;25.05;16.48;;;;;;;7.47;100.00;100743.13;4849547;29;20037;-77
2023/04/19 00:53:43;;;;;;;22.52;15.57;;;;;;;7.43;100.00;100746.69;4848181;29;20042;-77
2023/04/19 00:56:08;;;;;;;23.95;16.48;;;;;;;7.38;100.00;100734.53;4834043;29;20062;-77
2023/04/19 00:58:34;;;;;;;27.58;17.92;;;;;;;7.41;100.00;100738.69;4832867;29;20399;-77
2023/04/19 01:00:59;;;;;;;25.45;17.52;;;;;;;7.32;100.00;100724.50;4849405;29;20487;-77
2023/04/19 01:03:28;;;;;;;25.70;16.65;;;;;;;7.31;100.00;100731.16;4847899;29;20048;-77
2023/04/19 01:05:54;;;;;;;26.17;17.70;;;;;;;7.30;100.00;100721.22;4834233;29;20042;-77
2023/04/19 01:08:20;;;;;;;26.55;17.88;;;;;;;7.29;100.00;100729.75;4849361;29;20124;-77
2023/04/19 01:10:45;;;;;;;26.63;18.27;;;;;;;7.26;100.00;100731.13;4865209;29;20087;-77
2023/04/19 01:13:11;;;;;;;23.88;16.58;;;;;;;7.23;100.00;100723.38;4865768;29;20498;-77
2023/04/19 01:15:36;;;;;;;27.33;17.63;;;;;;;7.25;100.00;100721.19;4849149;29;20061;-77
2023/04/19 01:18:02;;;;;;;25.45;17.73;;;;;;;7.19;100.00;100713.97;4861799;29;20046;-77
2023/04/19 01:20:27;;;;;;;26.48;17.20;;;;;;;7.16;100.00;100717.25;4861216;29;20046;-77
2023/04/19 01:22:53;;;;;;;24.30;16.65;;;;;;;7.15;100.00;100710.88;4864312;29;20048;-78
2023/04/19 01:25:18;;;;;;;22.75;16.23;;;;;;;7.12;100.00;100710.59;4849079;29;20102;-77
2023/04/19 01:27:44;;;;;;;27.40;17.75;;;;;;;7.09;100.00;100711.13;4850586;29;20052;-77
2023/04/19 01:30:10;;;;;;;23.02;16.90;;;;;;;7.02;100.00;100703.09;4848948;29;20577;-77
2023/04/19 01:32:35;;;;;;;26.27;18.45;;;;;;;6.96;100.00;100704.13;4847348;29;20049;-77
2023/04/19 01:35:01;;;;;;;28.70;18.65;;;;;;;6.92;100.00;100694.72;4848724;29;20054;-77
2023/04/19 01:37:26;;;;;;;28.05;18.38;;;;;;;6.93;100.00;100699.13;4848405;29;20061;-77
2023/04/19 01:39:52;;;;;;;31.83;20.60;;;;;;;6.87;100.00;100692.75;4848655;29;20052;-78
2023/04/19 01:42:17;;;;;;;28.95;19.83;;;;;;;6.85;100.00;100692.19;4846376;29;20042;-76
2023/04/19 01:44:42;;;;;;;35.10;21.83;;;;;;;6.83;100.00;100688.84;4833572;29;20049;-78
2023/04/19 01:47:08;;;;;;;29.45;21.08;;;;;;;6.87;100.00;100691.91;4861694;29;20189;-77
2023/04/19 01:49:34;;;;;;;31.95;20.92;;;;;;;6.85;100.00;100683.06;4855474;29;20034;-77
2023/04/19 01:51:59;;;;;;;30.30;21.23;;;;;;;6.84;100.00;100678.66;4846773;29;20041;-77
2023/04/19 01:54:25;;;;;;;31.33;21.25;;;;;;;6.78;100.00;100676.94;4848566;29;20053;-77
2023/04/19 01:56:51;;;;;;;31.42;21.65;;;;;;;6.76;100.00;100679.97;4846658;29;20549;-77
2023/04/19 01:59:16;;;;;;;33.08;22.13;;;;;;;6.74;100.00;100682.16;4848182;29;20514;-77
2023/04/19 02:01:42;;;;;;;34.22;22.25;;;;;;;6.73;100.00;100680.50;4847071;29;20048;-77
2023/04/19 02:04:09;;;;;;;32.83;22.55;;;;;;;6.71;100.00;100671.63;4853817;29;20120;-77
2023/04/19 02:06:34;;;;;;;35.65;24.10;;;;;;;6.68;100.00;100667.47;4846749;29;20037;-77
2023/04/19 02:08:59;;;;;;;40.00;25.13;;;;;;;6.70;100.00;100678.25;4829946;29;20045;-77
2023/04/19 02:11:25;;;;;;;34.97;23.30;;;;;;;6.68;100.00;100674.94;4848203;29;20045;-77
2023/04/19 02:13:50;;;;;;;32.45;22.65;;;;;;;6.71;100.00;100674.41;4848197;29;20052;-77
2023/04/19 02:16:16;;;;;;;32.75;22.50;;;;;;;6.72;100.00;100674.16;4830778;29;20050;-77
2023/04/19 02:18:41;;;;;;;35.50;22.75;;;;;;;6.72;100.00;100670.56;4863452;29;20069;-77
2023/04/19 02:21:07;;;;;;;31.33;22.42;;;;;;;6.69;100.00;100671.09;4845373;29;20053;-77
2023/04/19 02:23:34;;;;;;;33.28;21.85;;;;;;;6.67;100.00;100665.81;4832624;29;20118;-77
2023/04/19 02:26:01;;;;;;;29.67;20.75;;;;;;;6.65;100.00;100665.25;4850495;29;20037;-77
2023/04/19 02:28:28;;;;;;;33.17;20.65;;;;;;;6.64;100.00;100654.50;4848366;29;20109;-77
2023/04/19 02:30:54;;;;;;;32.30;21.90;;;;;;;6.61;100.00;100658.59;4822582;29;20034;-77
2023/04/19 02:33:21;;;;;;;30.73;21.17;;;;;;;6.64;100.00;100658.06;4866666;29;20056;-77
2023/04/19 02:35:46;;;;;;;29.42;19.90;;;;;;;6.62;100.00;100654.75;4839678;29;20426;-77
2023/04/19 02:38:11;;;;;;;31.48;20.40;;;;;;;6.61;100.00;100658.59;4850677;29;20041;-77
2023/04/19 02:40:37;;;;;;;28.63;19.85;;;;;;;6.61;100.00;100657.78;4847997;29;20483;-77
2023/04/19 02:43:03;;;;;;;28.60;19.50;;;;;;;6.58;100.00;100656.38;4835042;29;20078;-77
2023/04/19 02:45:28;;;;;;;28.30;18.55;;;;;;;6.55;100.00;100653.31;4839771;29;20041;-77
2023/04/19 02:47:54;;;;;;;28.10;19.50;;;;;;;6.49;100.00;100649.66;4855444;29;20375;-77
2023/04/19 02:50:19;;;;;;;36.17;23.38;;;;;;;6.45;100.00;100643.84;4840661;29;20033;-77
2023/04/19 02:52:45;;;;;;;29.95;21.35;;;;;;;6.44;100.00;100642.19;4847459;29;20049;-77
2023/04/19 02:55:10;;;;;;;33.35;21.73;;;;;;;6.40;100.00;100641.03;4832004;29;20246;-77
2023/04/19 02:57:36;;;;;;;36.28;24.42;;;;;;;6.44;100.00;100644.13;4847839;29;20038;-77
2023/04/19 03:00:03;;;;;;;29.95;21.42;;;;;;;6.41;100.00;100637.19;4845848;29;20115;-77
2023/04/19 03:02:29;;;;;;;34.58;24.23;;;;;;;6.36;100.00;100637.16;4837766;29;20532;-76
2023/04/19 03:04:54;;;;;;;30.67;21.27;;;;;;;6.35;100.00;100641.03;4865901;29;20049;-77
2023/04/19 03:07:20;;;;;;;33.67;23.02;;;;;;;6.32;100.00;100635.19;4835942;29;20041;-77
2023/04/19 03:09:45;;;;;;;36.30;22.80;;;;;;;6.28;100.00;100643.16;4849953;29;20045;-77
2023/04/19 03:12:11;;;;;;;40.20;27.63;;;;;;;6.25;100.00;100640.91;4835147;29;20049;-77
2023/04/19 03:14:36;;;;;;;36.03;24.00;;;;;;;6.23;100.00;100638.41;4849976;29;20049;-77
2023/04/19 03:17:02;;;;;;;43.30;30.15;;;;;;;6.20;100.00;100636.19;4850254;29;20041;-77
2023/04/19 03:19:27;;;;;;;37.53;26.52;;;;;;;6.21;100.00;100639.75;4849688;29;20076;-77
2023/04/19 03:21:53;;;;;;;45.45;29.55;;;;;;;6.17;100.00;100642.22;4848611;29;20037;-77
2023/04/19 03:24:19;;;;;;;39.33;25.95;;;;;;;6.20;100.00;100633.41;4847629;29;20037;-77
2023/04/19 03:26:44;;;;;;;42.33;28.35;;;;;;;6.26;100.00;100637.06;4848034;29;20038;-77
2023/04/19 03:29:10;;;;;;;39.40;26.60;;;;;;;6.23;100.00;100632.91;4845727;29;20109;-78
2023/04/19 03:31:36;;;;;;;37.30;24.73;;;;;;;6.23;100.00;100637.59;4846049;29;20042;-77
2023/04/19 03:34:01;;;;;;;33.72;23.70;;;;;;;6.31;100.00;100639.03;4850155;29;20053;-77
2023/04/19 03:36:27;;;;;;;33.85;23.95;;;;;;;6.27;100.00;100633.22;4849135;29;20392;-77
2023/04/19 03:38:52;;;;;;;35.83;23.38;;;;;;;6.30;100.00;100632.69;4834930;29;20360;-77
2023/04/19 03:41:19;;;;;;;31.08;22.25;;;;;;;6.26;100.00;100634.31;4833754;29;20065;-77
2023/04/19 03:43:45;;;;;;;33.42;22.95;;;;;;;6.28;100.00;100637.63;4852172;29;20057;-77
2023/04/19 03:46:10;;;;;;;32.58;22.50;;;;;;;6.28;100.00;100639.56;4832503;29;20522;-77
2023/04/19 03:48:35;;;;;;;31.55;22.55;;;;;;;6.25;100.00;100632.66;4857562;29;20110;-77
2023/04/19 03:51:01;;;;;;;29.02;21.02;;;;;;;6.22;100.00;100630.41;4820018;29;20048;-77
2023/04/19 03:53:26;;;;;;;30.88;20.55;;;;;;;6.21;100.00;100631.50;4862919;29;20170;-77
2023/04/19 03:55:52;;;;;;;31.95;21.27;;;;;;;6.20;100.00;100627.09;4828985;29;20053;-77
2023/04/19 03:58:17;;;;;;;30.50;22.25;;;;;;;6.18;100.00;100637.53;4829100;29;20053;-77
2023/04/19 04:00:43;;;;;;;32.00;22.40;;;;;;;6.07;100.00;100635.78;4841031;29;20392;-77
2023/04/19 04:03:08;;;;;;;31.52;22.52;;;;;;;6.09;100.00;100645.44;4826402;29;20045;-77
2023/04/19 04:05:34;;;;;;;29.17;20.60;;;;;;;6.08;100.00;100645.72;4831714;29;20091;-77
2023/04/19 04:07:59;;;;;;;33.17;21.48;;;;;;;6.08;100.00;100642.97;4834756;29;20030;-77
2023/04/19 04:10:25;;;;;;;29.38;20.85;;;;;;;6.06;100.00;100636.88;4847240;29;20046;-77
2023/04/19 04:12:50;;;;;;;29.92;20.42;;;;;;;6.09;100.00;100642.69;4819689;29;20042;-77
2023/04/19 04:15:16;;;;;;;28.20;20.02;;;;;;;6.07;100.00;100633.03;4862514;29;20041;-77
2023/04/19 04:17:41;;;;;;;27.92;19.60;;;;;;;6.03;100.00;100630.78;4819558;29;20072;-77
2023/04/19 04:20:08;;;;;;;29.00;21.25;;;;;;;6.01;100.00;100634.91;4846867;29;20102;-77
2023/04/19 04:22:34;;;;;;;28.88;19.63;;;;;;;6.02;100.00;100634.66;4837086;29;20076;-77
2023/04/19 04:25:01;;;;;;;29.70;20.63;;;;;;;5.98;100.00;100640.94;4847213;29;20044;-77
2023/04/19 04:27:26;;;;;;;30.63;19.73;;;;;;;5.98;100.00;100638.19;4848551;29;20041;-77
2023/04/19 04:29:52;;;;;;;26.85;19.13;;;;;;;5.94;100.00;100631.53;4831457;29;20045;-77
2023/04/19 04:32:21;;;;;;;34.28;23.15;;;;;;;5.92;100.00;100633.69;4846845;29;20053;-77
2023/04/19 04:34:47;;;;;;;28.98;18.67;;;;;;;5.92;100.00;100630.91;4831547;29;20050;-77
2023/04/19 04:37:12;;;;;;;30.80;19.48;;;;;;;5.93;100.00;100633.44;4824481;29;20057;-77
2023/04/19 04:39:38;;;;;;;28.10;19.63;;;;;;;5.89;100.00;100631.44;4861110;29;20099;-77
2023/04/19 04:42:07;;;;;;;29.45;20.20;;;;;;;5.87;100.00;100637.19;4846728;29;20118;-77
2023/04/19 04:44:36;;;;;;;31.33;21.55;;;;;;;5.89;100.00;100636.97;4843627;29;20381;-77
2023/04/19 04:47:01;;;;;;;29.73;19.73;;;;;;;5.85;100.00;100638.56;4828575;29;20049;-77
2023/04/19 04:49:28;;;;;;;36.05;22.52;;;;;;;5.83;100.00;100636.06;4841781;29;20042;-77
2023/04/19 04:51:54;;;;;;;35.40;22.70;;;;;;;5.76;100.00;100628.00;4846499;29;20098;-77
2023/04/19 04:54:20;;;;;;;32.97;21.65;;;;;;;5.78;100.00;100638.78;4825496;29;20050;-77
2023/04/19 04:56:45;;;;;;;46.45;30.40;;;;;;;5.70;100.00;100636.47;4841150;29;20042;-77
2023/04/19 04:59:11;;;;;;;40.38;26.40;;;;;;;5.60;100.00;100637.19;4846256;29;20511;-77
2023/04/19 05:01:36;;;;;;;41.72;26.33;;;;;;;5.64;100.00;100632.81;4834544;29;20542;-77
2023/04/19 05:04:02;;;;;;;43.90;28.38;;;;;;;5.68;100.00;100633.13;4827903;29;20514;-77
2023/04/19 05:06:27;;;;;;;41.00;26.00;;;;;;;5.66;100.00;100627.91;4827782;29;20108;-77
2023/04/19 05:08:53;;;;;;;42.38;28.13;;;;;;;5.66;100.00;100629.84;4812666;29;20043;-77
2023/04/19 05:11:19;;;;;;;36.88;25.17;;;;;;;5.65;100.00;100628.97;4824726;29;20038;-77
2023/04/19 05:13:44;;;;;;;44.10;29.30;;;;;;;5.65;100.00;100628.16;4818995;29;20046;-77
2023/04/19 05:16:10;;;;;;;45.30;30.17;;;;;;;5.65;100.00;100628.16;4861332;29;20075;-77
2023/04/19 05:18:35;;;;;;;46.35;30.73;;;;;;;5.66;100.00;100638.09;4835138;29;20073;-77
2023/04/19 05:21:01;;;;;;;40.15;25.92;;;;;;;5.69;100.00;100630.13;4845608;29;20053;-77
2023/04/19 05:23:26;;;;;;;42.20;26.75;;;;;;;5.71;100.00;100627.09;4834064;29;20051;-77
2023/04/19 05:25:52;;;;;;;40.72;27.40;;;;;;;5.69;100.00;100634.81;4848849;29;20089;-77
2023/04/19 05:28:17;;;;;;;38.65;25.52;;;;;;;5.65;100.00;100633.66;4846030;29;20398;-77
2023/04/19 05:30:42;;;;;;;43.20;28.15;;;;;;;5.68;100.00;100633.13;4815214;29;20042;-76
2023/04/19 05:33:08;;;;;;;40.35;27.02;;;;;;;5.70;100.00;100628.22;4833561;29;20046;-77
2023/04/19 05:35:33;;;;;;;44.33;30.05;;;;;;;5.73;100.00;100625.75;4847742;29;20072;-77
2023/04/19 05:37:59;;;;;;;37.58;24.67;;;;;;;5.77;100.00;100631.59;4848695;29;20121;-77
2023/04/19 05:40:25;;;;;;;40.42;27.05;;;;;;;5.85;100.00;100631.13;4848673;29;20033;-77
2023/04/19 05:42:50;;;;;;;39.45;26.35;;;;;;;5.86;100.00;100630.03;4848662;29;20069;-77
2023/04/19 05:45:17;;;;;;;41.55;25.95;;;;;;;5.90;100.00;100628.41;4852608;29;20045;-77
2023/04/19 05:47:42;;;;;;;40.83;27.52;;;;;;;5.92;100.00;100634.50;4837002;29;20041;-77
2023/04/19 05:50:08;;;;;;;47.88;31.02;;;;;;;5.98;100.00;100639.00;4855612;29;20045;-77
2023/04/19 05:52:34;;;;;;;47.88;30.05;;;;;;;6.05;100.00;100633.28;4845331;29;20136;-77
2023/04/19 05:55:00;;;;;;;44.03;29.17;;;;;;;6.13;100.00;100635.59;4845430;29;20411;-77
2023/04/19 05:57:25;;;;;;;47.88;29.85;;;;;;;6.22;100.00;100631.25;4845133;29;20062;-77
2023/04/19 05:59:51;;;;;;;51.20;34.08;;;;;;;6.34;100.00;100631.06;4848478;29;20053;-77
2023/04/19 06:02:16;;;;;;;49.92;31.38;;;;;;;6.44;100.00;100642.19;4845222;29;20042;-77
2023/04/19 06:04:42;;;;;;;48.30;31.38;;;;;;;6.55;100.00;100636.75;4858039;29;20045;-78
2023/04/19 06:07:07;;;;;;;46.67;28.75;;;;;;;6.64;100.00;100636.00;4864759;29;20037;-77
2023/04/19 06:09:33;;;;;;;39.80;26.23;;;;;;;6.77;100.00;100643.00;4833110;29;20033;-78
2023/04/19 06:11:58;;;;;;;42.30;27.10;;;;;;;6.90;100.00;100630.63;4832940;29;20073;-77
2023/04/19 06:14:28;;;;;;;35.38;23.25;;;;;;;7.04;100.00;100631.00;4832166;29;20524;-78
2023/04/19 06:16:53;;;;;;;33.80;22.08;;;;;;;7.16;100.00;100638.00;4815004;29;20052;-77
2023/04/19 06:19:20;;;;;;;42.45;27.73;;;;;;;7.31;100.00;100634.47;4856919;29;20038;-77
2023/04/19 06:21:46;;;;;;;35.75;23.77;;;;;;;7.46;100.00;100635.63;4848091;29;20545;-77
2023/04/19 06:24:12;;;;;;;33.88;24.05;;;;;;;7.61;100.00;100635.69;4838284;29;20459;-78
2023/04/19 06:26:37;;;;;;;31.92;22.23;;;;;;;7.74;100.00;100621.34;4846760;29;20045;-77
2023/04/19 06:29:03;;;;;;;41.00;28.63;;;;;;;7.91;100.00;100625.78;4830452;29;20038;-77
2023/04/19 06:31:28;;;;;;;38.03;25.25;;;;;;;8.04;100.00;100637.16;4847665;29;20037;-77
2023/04/19 06:33:54;;;;;;;42.05;28.80;;;;;;;8.20;100.00;100631.66;4847187;29;20045;-77
2023/04/19 06:36:19;;;;;;;42.33;29.80;;;;;;;8.31;100.00;100625.03;4847436;29;20662;-77
2023/04/19 06:38:45;;;;;;;51.75;33.30;;;;;;;8.45;100.00;100622.56;4847808;29;20066;-77
2023/04/19 06:41:10;;;;;;;49.38;30.83;;;;;;;8.57;100.00;100628.66;4829464;29;20061;-77
2023/04/19 06:43:36;;;;;;;55.60;32.53;;;;;;;8.72;100.00;100633.34;4849156;29;20049;-77
2023/04/19 06:46:03;;;;;;;46.17;33.08;;;;;;;8.86;100.00;100625.28;4834037;29;20559;-77
2023/04/19 06:48:28;;;;;;;48.55;31.95;;;;;;;8.98;100.00;100625.81;4817746;29;20114;-77
2023/04/19 06:50:54;;;;;;;49.22;33.65;;;;;;;9.14;100.00;100621.09;4847367;29;20059;-77
2023/04/19 06:53:20;;;;;;;47.90;33.65;;;;;;;9.28;100.00;100632.41;4832693;29;20042;-77
2023/04/19 06:55:45;;;;;;;49.53;33.58;;;;;;;9.40;100.00;100624.59;4829168;29;20395;-77
2023/04/19 06:58:11;;;;;;;48.97;32.25;;;;;;;9.55;100.00;100632.81;4829390;29;20045;-78
2023/04/19 07:00:36;;;;;;;45.97;31.17;;;;;;;9.70;100.00;100615.28;4844215;29;20065;-77
2023/04/19 07:03:02;;;;;;;49.15;33.42;;;;;;;9.84;100.00;100618.28;4844421;29;20495;-77
2023/04/19 07:05:28;;;;;;;51.97;35.75;;;;;;;9.99;100.00;100622.88;4842736;29;20117;-77
2023/04/19 07:07:53;;;;;;;50.92;35.63;;;;;;;10.12;100.00;100625.03;4846845;29;20125;-77
2023/04/19 07:10:19;;;;;;;52.30;35.53;;;;;;;10.30;100.00;100620.75;4844131;29;20038;-77
2023/04/19 07:12:44;;;;;;;51.20;33.92;;;;;;;10.42;100.00;100623.13;4841313;29;20041;-77
2023/04/19 07:15:10;;;;;;;50.30;33.70;;;;;;;10.54;100.00;100622.78;4836627;29;20037;-78
2023/04/19 07:17:36;;;;;;;51.13;34.10;;;;;;;10.72;100.00;100627.59;4832251;29;20046;-78
2023/04/19 07:20:04;;;;;;;46.38;33.08;;;;;;;10.80;100.00;100626.97;4831743;29;20050;-78
2023/04/19 07:22:29;;;;;;;51.85;36.50;;;;;;;10.89;100.00;100628.00;4847365;29;20046;-77
2023/04/19 07:24:55;;;;;;;49.40;34.70;;;;;;;11.04;100.00;100621.44;4844147;29;20066;-77
2023/04/19 07:27:20;;;;;;;47.50;32.55;;;;;;;11.22;100.00;100621.81;4847214;29;20046;-77
2023/04/19 07:29:46;;;;;;;49.45;35.38;;;;;;;11.35;100.00;100624.72;4847123;29;20045;-77
2023/04/19 07:32:12;;;;;;;49.92;32.72;;;;;;;11.49;100.00;100629.56;4832056;29;20045;-77
2023/04/19 07:34:40;;;;;;;47.05;33.55;;;;;;;11.57;100.00;100624.16;4843787;29;20456;-78
2023/04/19 07:37:05;;;;;;;45.63;32.03;;;;;;;11.72;100.00;100625.91;4856635;29;20065;-78
2023/04/19 07:39:31;;;;;;;47.28;30.95;;;;;;;11.83;100.00;100613.50;4831722;29;20074;-77
2023/04/19 07:41:57;;;;;;;45.70;31.55;;;;;;;11.95;100.00;100620.59;4859398;29;20042;-77
2023/04/19 07:44:22;;;;;;;47.10;32.35;;;;;;;12.08;100.00;100612.31;4844268;29;20049;-78
2023/04/19 07:46:47;;;;;;;42.15;30.10;;;;;;;12.18;100.00;100608.56;4846903;29;20042;-78
2023/04/19 07:49:13;;;;;;;44.88;30.35;;;;;;;12.36;100.00;100612.44;4825022;29;20050;-78
2023/04/19 07:51:38;;;;;;;40.70;30.05;;;;;;;12.52;100.00;100608.28;4846913;29;20044;-78
2023/04/19 07:54:04;;;;;;;40.72;28.90;;;;;;;12.68;100.00;100613.59;4846911;29;20045;-78
2023/04/19 07:56:29;;;;;;;39.38;26.38;;;;;;;12.88;100.00;100607.66;4847070;29;20072;-78
2023/04/19 07:58:55;;;;;;;39.78;27.30;;;;;;;13.03;100.00;100602.91;4846764;29;20490;-78
2023/04/19 08:01:21;;;;;;;39.85;27.83;;;;;;;13.05;100.00;100604.25;4831747;29;20468;-78
2023/04/19 08:03:46;;;;;;;40.42;27.65;;;;;;;13.21;100.00;100607.59;4847026;29;20041;-77
2023/04/19 08:06:13;;;;;;;32.70;23.42;;;;;;;13.41;100.00;100609.16;4843704;29;20053;-78
2023/04/19 08:08:38;;;;;;;32.17;23.63;;;;;;;13.55;100.00;100607.19;4843640;29;20528;-78
2023/04/19 08:11:04;;;;;;;30.80;22.42;;;;;;;13.74;100.00;100606.25;4844927;29;20077;-78
2023/04/19 08:13:30;;;;;;;30.63;20.65;;;;;;;13.87;100.00;100602.56;4813542;29;20038;-78
2023/04/19 08:15:55;;;;;;;30.20;20.77;;;;;;;14.03;100.00;100601.06;4843679;29;20049;-78
2023/04/19 08:18:21;;;;;;;32.67;22.83;;;;;;;14.14;100.00;100607.25;4843402;29;20045;-78
2023/04/19 08:20:47;;;;;;;30.80;21.90;;;;;;;14.17;100.00;100608.59;4846715;29;20046;-78
2023/04/19 08:23:13;;;;;;;32.58;21.83;;;;;;;14.21;100.00;100604.03;4831629;29;20046;-78
2023/04/19 08:25:38;;;;;;;31.35;21.92;;;;;;;14.28;100.00;100612.78;4834262;29;20049;-78
2023/04/19 08:28:04;;;;;;;32.83;22.88;;;;;;;14.42;100.00;100610.75;4832252;29;20398;-78
2023/04/19 08:30:29;;;;;;;30.05;21.10;;;;;;;14.43;100.00;100603.19;4846872;29;20034;-78
2023/04/19 08:32:55;;;;;;;29.10;21.20;;;;;;;14.43;100.00;100609.63;4846753;29;20046;-78
2023/04/19 08:35:21;;;;;;;31.95;21.35;;;;;;;14.52;100.00;100599.38;4861794;29;20050;-78
2023/04/19 08:37:47;;;;;;;27.80;20.98;;;;;;;14.59;100.00;100592.50;4834230;29;20128;-78
2023/04/19 08:40:13;;;;;;;28.75;20.60;;;;;;;14.76;100.00;100592.59;4834401;29;20327;-78
2023/04/19 08:42:39;;;;;;;27.42;19.95;;;;;;;14.90;100.00;100596.13;4834307;29;20087;-78
2023/04/19 08:45:05;;;;;;;28.20;20.95;;;;;;;14.97;100.00;100590.91;4850219;29;20457;-78
2023/04/19 08:47:34;;;;;;;26.48;20.35;;;;;;;15.11;100.00;100589.97;4850090;29;20122;-78
2023/04/19 08:50:03;;;;;;;27.08;20.48;;;;;;;15.11;100.00;100593.59;4842258;29;20041;-78
2023/04/19 08:52:29;;;;;;;29.65;20.98;;;;;;;15.16;100.00;100592.63;4846464;29;20034;-78
2023/04/19 08:54:54;;;;;;;29.85;20.58;;;;;;;15.23;100.00;100592.97;4846690;29;20041;-78
2023/04/19 08:57:20;;;;;;;23.67;18.38;;;;;;;15.45;100.00;100594.03;4846197;29;20042;-78
2023/04/19 08:59:49;;;;;;;28.45;21.05;;;;;;;15.61;100.00;100603.66;4846315;29;20042;-79
2023/04/19 09:02:15;;;;;;;27.67;20.55;;;;;;;15.69;100.00;100593.66;4865072;29;20050;-78
2023/04/19 09:04:40;;;;;;;28.10;19.83;;;;;;;15.78;100.00;100586.91;4849294;29;20411;-78
2023/04/19 09:07:07;;;;;;;25.58;19.95;;;;;;;15.83;100.00;100586.75;4833989;29;20049;-78
2023/04/19 09:09:32;;;;;;;25.67;19.27;;;;;;;15.99;100.00;100597.47;4834175;29;20041;-78
2023/04/19 09:11:58;;;;;;;27.75;21.02;;;;;;;16.03;100.00;100592.88;4830850;29;20053;-78
2023/04/19 09:14:24;;;;;;;29.02;21.25;;;;;;;16.05;100.00;100601.78;4839378;29;20399;-79
2023/04/19 09:16:51;;;;;;;28.40;21.67;;;;;;;16.11;100.00;100592.03;4830690;29;20046;-79
2023/04/19 09:19:16;;;;;;;28.25;20.65;;;;;;;16.16;100.00;100597.50;4842271;29;20142;-79
2023/04/19 09:21:42;;;;;;;28.15;21.10;;;;;;;16.19;100.00;100580.00;4856462;29;20514;-78
2023/04/19 09:24:08;;;;;;;26.95;19.83;;;;;;;16.36;100.00;100587.59;4847626;29;20068;-78
2023/04/19 09:26:33;;;;;;;27.27;19.88;;;;;;;16.49;100.00;100578.19;4866446;29;20033;-78
2023/04/19 09:29:05;;;;;;;28.67;20.73;;;;;;;16.60;100.00;100587.03;4849184;29;20170;-78
2023/04/19 09:31:34;;;;;;;25.92;19.00;;;;;;;16.65;100.00;100583.25;4848840;29;20038;-79
2023/04/19 09:34:13;;;;;;;25.15;19.60;;;;;;;16.77;100.00;100588.19;4831778;29;20052;-79
2023/04/19 09:36:39;;;;;;;27.15;19.73;;;;;;;16.85;100.00;100581.72;4845378;29;20054;-78
2023/04/19 09:39:05;;;;;;;28.00;20.63;;;;;;;16.94;100.00;100580.56;4830481;29;20046;-79
2023/04/19 09:41:32;;;;;;;24.50;18.75;;;;;;;17.03;100.00;100574.09;4830426;29;20053;-78
2023/04/19 09:44:10;;;;;;;24.00;18.55;;;;;;;17.12;100.00;100572.06;4849235;29;20553;-79
2023/04/19 09:46:36;;;;;;;23.45;18.00;;;;;;;17.08;100.00;100576.72;4845666;29;20103;-78
2023/04/19 09:49:14;;;;;;;25.02;18.83;;;;;;;17.28;100.00;100570.34;4831959;29;20124;-79
2023/04/19 09:51:40;;;;;;;26.42;18.85;;;;;;;17.28;100.00;100569.53;4845628;29;20046;-79
2023/04/19 09:54:07;;;;;;;26.08;19.40;;;;;;;17.27;100.00;100574.28;4818216;29;20066;-78
2023/04/19 09:56:32;;;;;;;26.88;19.50;;;;;;;17.33;100.00;100558.94;4847992;29;20045;-79
2023/04/19 09:58:58;;;;;;;26.55;19.85;;;;;;;17.39;100.00;100559.56;4816156;29;20449;-79
2023/04/19 10:01:23;;;;;;;24.08;18.85;;;;;;;17.44;100.00;100556.56;4841229;29;20057;-79
2023/04/19 10:03:49;;;;;;;22.40;17.92;;;;;;;17.39;100.00;100556.75;4843490;29;20385;-78
2023/04/19 10:06:15;;;;;;;23.73;17.13;;;;;;;17.46;100.00;100559.81;4830316;29;20125;-79
2023/04/19 10:08:42;;;;;;;23.90;18.45;;;;;;;17.54;100.00;100552.53;4830234;29;20105;-79
2023/04/19 10:11:08;;;;;;;22.75;17.63;;;;;;;17.56;100.00;100559.44;4830294;29;20067;-78
2023/04/19 10:13:34;;;;;;;23.50;17.98;;;;;;;17.66;100.00;100558.22;4848033;29;20046;-79
2023/04/19 10:15:59;;;;;;;21.95;17.70;;;;;;;17.59;100.00;100553.16;4833221;29;20066;-79
2023/04/19 10:18:25;;;;;;;21.95;17.60;;;;;;;17.65;100.00;100557.41;4832018;29;20399;-79
2023/04/19 10:21:01;;;;;;;23.42;18.40;;;;;;;17.67;100.00;100542.22;4848238;29;20110;-79
2023/04/19 10:23:26;;;;;;;22.65;17.13;;;;;;;17.85;100.00;100547.38;4813558;29;20129;-79
2023/04/19 10:25:56;;;;;;;21.42;16.70;;;;;;;17.95;100.00;100546.16;4816826;29;20182;-79
2023/04/19 10:28:22;;;;;;;23.08;18.25;;;;;;;17.85;100.00;100543.75;4845319;29;20038;-78
2023/04/19 10:30:55;;;;;;;23.25;17.33;;;;;;;17.94;100.00;100547.31;4817673;29;20048;-78
2023/04/19 10:33:33;;;;;;;21.40;16.00;;;;;;;18.04;100.00;100544.06;4829850;29;20067;-79
2023/04/19 10:35:59;;;;;;;20.95;16.02;;;;;;;18.04;100.00;100546.88;4820629;29;20065;-79
2023/04/19 10:38:35;;;;;;;19.33;16.00;;;;;;;18.26;100.00;100536.44;4816441;29;20098;-79
2023/04/19 10:41:10;;;;;;;17.88;14.07;;;;;;;18.39;100.00;100535.34;4833951;29;20495;-79
2023/04/19 10:43:36;;;;;;;16.80;14.38;;;;;;;18.57;100.00;100538.78;4824926;29;20048;-78
2023/04/19 10:46:30;;;;;;;15.75;12.98;;;;;;;18.72;100.00;100540.09;4845897;29;20049;-79
2023/04/19 10:48:57;;;;;;;19.42;14.68;;;;;;;18.66;100.00;100538.66;4843397;29;20125;-79
2023/04/19 10:51:26;;;;;;;19.20;15.50;;;;;;;18.71;100.00;100530.81;4831458;29;20045;-79
2023/04/19 10:53:56;;;;;;;18.83;14.75;;;;;;;18.85;100.00;100524.91;4814480;29;20518;-79
2023/04/19 10:56:35;;;;;;;28.27;15.32;;;;;;;18.71;100.00;100525.19;4828743;29;20046;-79
2023/04/19 10:59:01;;;;;;;18.65;15.00;;;;;;;18.80;100.00;100529.94;4829117;29;20072;-79
2023/04/19 11:01:34;;;;;;;17.80;13.27;;;;;;;18.93;100.00;100523.97;4845688;29;20058;-79